createdAt,value
2018-02-15T00:00:08.398Z,33.58
2018-02-15T00:01:08.408Z,33.95
2018-02-15T00:02:08.402Z,34.23
2018-02-15T00:03:08.404Z,34.70
2018-02-15T00:04:08.412Z,34.89
2018-02-15T00:05:08.416Z,34.70
2018-02-15T00:06:08.417Z,34.42
2018-02-15T00:07:08.414Z,33.58
2018-02-15T00:08:08.418Z,33.58
2018-02-15T00:09:08.422Z,33.39
2018-02-15T00:10:08.424Z,33.58
2018-02-15T00:11:08.424Z,34.33
2018-02-15T00:12:08.429Z,34.70
2018-02-15T00:13:08.437Z,34.70
2018-02-15T00:14:08.441Z,34.33
2018-02-15T00:15:08.434Z,33.48
2018-02-15T00:16:08.436Z,32.63
2018-02-15T00:17:08.446Z,31.88
2018-02-15T00:18:08.442Z,31.31
2018-02-15T00:19:08.450Z,31.31
2018-02-15T00:20:08.457Z,31.59
2018-02-15T00:21:08.455Z,31.78
2018-02-15T00:22:08.458Z,31.50
2018-02-15T00:23:08.453Z,31.03
2018-02-15T00:24:08.456Z,30.93
2018-02-15T00:25:08.459Z,31.69
2018-02-15T00:26:08.470Z,32.07
2018-02-15T00:27:08.469Z,31.40
2018-02-15T00:28:08.465Z,31.21
2018-02-15T00:29:08.474Z,30.74
2018-02-15T00:30:08.477Z,30.36
2018-02-15T00:31:08.472Z,30.08
2018-02-15T00:32:08.481Z,30.65
2018-02-15T00:33:08.480Z,31.12
2018-02-15T00:34:08.481Z,31.88
2018-02-15T00:35:08.491Z,31.50
2018-02-15T00:36:08.490Z,32.16
2018-02-15T00:37:08.487Z,31.69
2018-02-15T00:38:08.496Z,30.65
2018-02-15T00:39:08.491Z,29.99
2018-02-15T00:40:08.502Z,30.29
2018-02-15T00:41:08.497Z,31.12
2018-02-15T00:42:08.501Z,31.78
2018-02-15T00:43:08.506Z,32.18
2018-02-15T00:44:08.558Z,32.27
2018-02-15T00:45:08.512Z,31.97
2018-02-15T00:46:08.519Z,32.44
2018-02-15T00:47:08.517Z,32.37
2018-02-15T00:48:08.514Z,32.18
2018-02-15T00:49:08.521Z,32.44
2018-02-15T00:50:08.525Z,32.65
2018-02-15T00:51:08.526Z,32.27
2018-02-15T00:52:08.530Z,32.65
2018-02-15T00:53:08.533Z,33.40
2018-02-15T00:54:08.529Z,33.50
2018-02-15T00:55:08.530Z,32.37
2018-02-15T00:56:08.533Z,31.42
2018-02-15T00:57:08.542Z,31.61
2018-02-15T00:58:08.546Z,31.51
2018-02-15T00:59:08.541Z,31.42
2018-02-15T01:00:08.544Z,31.04
2018-02-15T01:01:08.551Z,31.31
2018-02-15T01:02:08.549Z,31.61
2018-02-15T01:03:08.550Z,30.95
2018-02-15T01:04:08.561Z,30.19
2018-02-15T01:05:08.555Z,29.72
2018-02-15T01:06:08.561Z,29.91
2018-02-15T01:07:08.566Z,29.72
2018-02-15T01:08:08.562Z,30.38
2018-02-15T01:09:08.564Z,31.14
2018-02-15T01:10:08.573Z,31.80
2018-02-15T01:11:08.569Z,32.08
2018-02-15T01:12:08.578Z,32.18
2018-02-15T01:13:08.578Z,31.99
2018-02-15T01:14:08.578Z,32.27
2018-02-15T01:15:08.588Z,32.27
2018-02-15T01:16:08.593Z,32.84
2018-02-15T01:17:08.585Z,33.31
2018-02-15T01:18:08.593Z,33.03
2018-02-15T01:19:08.596Z,33.03
2018-02-15T01:20:08.592Z,32.56
2018-02-15T01:21:08.602Z,31.80
2018-02-15T01:22:08.602Z,31.33
2018-02-15T01:23:08.604Z,31.14
2018-02-15T01:24:08.604Z,30.95
2018-02-15T01:25:08.612Z,31.14
2018-02-15T01:26:08.608Z,31.89
2018-02-15T01:27:08.616Z,32.18
2018-02-15T01:28:08.614Z,32.37
2018-02-15T01:29:08.616Z,32.18
2018-02-15T01:30:08.625Z,32.18
2018-02-15T01:31:08.625Z,32.27
2018-02-15T01:32:08.625Z,32.56
2018-02-15T01:33:08.627Z,32.18
2018-02-15T01:34:08.636Z,32.37
2018-02-15T01:35:08.636Z,32.18
2018-02-15T01:36:08.637Z,31.89
2018-02-15T01:37:08.636Z,31.89
2018-02-15T01:38:08.640Z,32.74
2018-02-15T01:39:08.642Z,33.78
2018-02-15T01:40:08.648Z,34.44
2018-02-15T01:41:08.648Z,34.63
2018-02-15T01:42:08.649Z,35.01
2018-02-15T01:43:08.652Z,35.86
2018-02-15T01:44:08.660Z,36.61
2018-02-15T01:45:08.665Z,36.71
2018-02-15T01:46:08.661Z,36.71
2018-02-15T01:47:08.669Z,36.14
2018-02-15T01:48:08.665Z,35.86
2018-02-15T01:49:08.671Z,35.38
2018-02-15T01:50:08.673Z,34.82
2018-02-15T01:51:08.677Z,34.44
2018-02-15T01:52:08.682Z,34.63
2018-02-15T01:53:08.684Z,34.63
2018-02-15T01:54:08.682Z,34.91
2018-02-15T01:55:08.690Z,34.82
2018-02-15T01:56:08.687Z,33.59
2018-02-15T01:57:08.690Z,32.93
2018-02-15T01:58:08.698Z,33.50
2018-02-15T01:59:08.693Z,33.97
2018-02-15T02:00:08.698Z,34.82
2018-02-15T02:01:08.704Z,34.72
2018-02-15T02:02:08.701Z,34.72
2018-02-15T02:03:08.710Z,34.82
2018-02-15T02:04:08.708Z,35.01
2018-02-15T02:05:08.716Z,35.19
2018-02-15T02:06:08.719Z,35.29
2018-02-15T02:07:08.721Z,35.10
2018-02-15T02:08:08.719Z,34.53
2018-02-15T02:09:08.727Z,33.69
2018-02-15T02:10:08.726Z,32.18
2018-02-15T02:11:08.734Z,32.18
2018-02-15T02:12:08.731Z,31.89
2018-02-15T02:13:08.733Z,31.99
2018-02-15T02:14:08.738Z,33.40
2018-02-15T02:15:08.743Z,34.82
2018-02-15T02:16:08.748Z,35.29
2018-02-15T02:17:08.752Z,35.86
2018-02-15T02:18:08.747Z,35.76
2018-02-15T02:19:08.755Z,35.67
2018-02-15T02:20:08.763Z,34.53
2018-02-15T02:21:08.762Z,33.40
2018-02-15T02:22:08.763Z,33.97
2018-02-15T02:23:08.761Z,34.44
2018-02-15T02:24:08.765Z,34.44
2018-02-15T02:25:08.767Z,33.40
2018-02-15T02:26:08.775Z,32.84
2018-02-15T02:27:08.783Z,32.27
2018-02-15T02:28:08.774Z,32.84
2018-02-15T02:29:08.784Z,32.46
2018-02-15T02:30:08.781Z,32.56
2018-02-15T02:31:08.787Z,32.08
2018-02-15T02:32:08.791Z,30.85
2018-02-15T02:33:08.794Z,30.57
2018-02-15T02:34:08.798Z,30.19
2018-02-15T02:35:08.794Z,30.29
2018-02-15T02:36:08.804Z,30.95
2018-02-15T02:37:08.800Z,30.95
2018-02-15T02:38:08.808Z,29.72
2018-02-15T02:39:08.805Z,29.53
2018-02-15T02:40:08.814Z,28.78
2018-02-15T02:41:08.810Z,28.88
2018-02-15T02:42:08.820Z,28.12
2018-02-15T02:43:08.822Z,26.79
2018-02-15T02:44:08.819Z,27.27
2018-02-15T02:45:08.827Z,27.83
2018-02-15T02:46:08.830Z,27.83
2018-02-15T02:47:08.829Z,27.27
2018-02-15T02:48:08.830Z,26.04
2018-02-15T02:49:08.835Z,26.32
2018-02-15T02:50:08.837Z,27.55
2018-02-15T02:51:08.842Z,28.78
2018-02-15T02:52:08.842Z,29.53
2018-02-15T02:53:08.845Z,29.72
2018-02-15T02:54:08.850Z,30.38
2018-02-15T02:55:08.856Z,29.44
2018-02-15T02:56:08.859Z,29.35
2018-02-15T02:57:08.857Z,29.06
2018-02-15T02:58:08.859Z,28.97
2018-02-15T02:59:08.862Z,28.50
2018-02-15T03:00:08.865Z,28.50
2018-02-15T03:01:08.868Z,28.12
2018-02-15T03:02:08.877Z,28.12
2018-02-15T03:03:08.879Z,25.01
2018-02-15T03:04:08.878Z,20.20
2018-02-15T03:05:08.880Z,17.84
2018-02-15T03:06:08.889Z,16.24
2018-02-15T03:07:08.885Z,16.24
2018-02-15T03:08:08.888Z,18.22
2018-02-15T03:09:08.892Z,20.39
2018-02-15T03:10:08.893Z,21.62
2018-02-15T03:11:08.900Z,22.66
2018-02-15T03:12:08.899Z,23.98
2018-02-15T03:13:08.908Z,23.98
2018-02-15T03:14:08.906Z,22.38
2018-02-15T03:15:08.909Z,22.19
2018-02-15T03:16:08.917Z,21.71
2018-02-15T03:17:08.922Z,22.09
2018-02-15T03:18:08.924Z,22.47
2018-02-15T03:19:08.921Z,23.32
2018-02-15T03:20:08.925Z,22.38
2018-02-15T03:21:08.929Z,21.52
2018-02-15T03:22:08.932Z,21.62
2018-02-15T03:23:08.934Z,22.56
2018-02-15T03:24:08.937Z,23.88
2018-02-15T03:25:08.946Z,25.59
2018-02-15T03:26:08.950Z,27.19
2018-02-15T03:27:08.954Z,27.19
2018-02-15T03:28:08.955Z,27.28
2018-02-15T03:29:08.953Z,27.19
2018-02-15T03:30:08.963Z,27.56
2018-02-15T03:31:08.960Z,27.66
2018-02-15T03:32:08.969Z,27.19
2018-02-15T03:33:08.973Z,26.90
2018-02-15T03:34:08.975Z,27.85
2018-02-15T03:35:08.977Z,29.93
2018-02-15T03:36:08.980Z,30.40
2018-02-15T03:37:08.983Z,30.21
2018-02-15T03:38:08.979Z,30.11
2018-02-15T03:39:08.983Z,29.64
2018-02-15T03:40:08.988Z,29.36
2018-02-15T03:41:08.995Z,28.04
2018-02-15T03:42:08.999Z,27.66
2018-02-15T03:43:08.996Z,25.59
2018-02-15T03:44:09.004Z,25.21
2018-02-15T03:45:09.004Z,25.68
2018-02-15T03:46:09.011Z,25.59
2018-02-15T03:47:09.008Z,24.92
2018-02-15T03:48:09.012Z,23.32
2018-02-15T03:49:09.025Z,22.19
2018-02-15T03:50:09.026Z,20.77
2018-02-15T03:51:09.028Z,17.94
2018-02-15T03:52:09.032Z,16.89
2018-02-15T03:53:09.038Z,17.84
2018-02-15T03:54:09.034Z,20.20
2018-02-15T03:55:09.037Z,23.22
2018-02-15T03:56:09.039Z,24.64
2018-02-15T03:57:09.048Z,23.98
2018-02-15T03:58:09.052Z,22.00
2018-02-15T03:59:09.054Z,22.56
2018-02-15T04:00:09.054Z,24.45
2018-02-15T04:01:09.064Z,25.68
2018-02-15T04:02:09.058Z,26.43
2018-02-15T04:03:09.067Z,27.47
2018-02-15T04:04:09.067Z,28.42
2018-02-15T04:05:09.100Z,28.61
2018-02-15T04:06:09.072Z,28.42
2018-02-15T04:07:09.072Z,28.61
2018-02-15T04:08:09.077Z,28.42
2018-02-15T04:09:09.087Z,29.27
2018-02-15T04:10:09.091Z,29.64
2018-02-15T04:11:09.088Z,28.61
2018-02-15T04:12:09.096Z,27.85
2018-02-15T04:13:09.100Z,29.93
2018-02-15T04:14:09.102Z,30.96
2018-02-15T04:15:09.106Z,31.53
2018-02-15T04:16:09.112Z,32.10
2018-02-15T04:17:09.107Z,33.61
2018-02-15T04:18:09.118Z,37.38
2018-02-15T04:19:09.114Z,40.31
2018-02-15T04:20:09.124Z,43.99
2018-02-15T04:21:09.127Z,48.62
2018-02-15T04:22:09.129Z,51.36
2018-02-15T04:23:09.132Z,53.81
2018-02-15T04:24:09.136Z,56.65
2018-02-15T04:25:09.138Z,59.00
2018-02-15T04:26:09.137Z,61.74
2018-02-15T04:27:09.144Z,63.13
2018-02-15T04:28:09.144Z,63.54
2018-02-15T04:29:09.152Z,64.76
2018-02-15T04:30:09.150Z,66.09
2018-02-15T04:31:09.158Z,66.34
2018-02-15T04:32:09.163Z,67.60
2018-02-15T04:33:09.164Z,68.07
2018-02-15T04:34:09.162Z,68.70
2018-02-15T04:35:09.169Z,69.73
2018-02-15T04:36:09.169Z,70.39
2018-02-15T04:37:09.177Z,71.15
2018-02-15T04:38:09.175Z,72.75
2018-02-15T04:39:09.177Z,73.22
2018-02-15T04:40:09.179Z,73.60
2018-02-15T04:41:09.181Z,73.32
2018-02-15T04:42:09.185Z,73.13
2018-02-15T04:43:09.188Z,73.60
2018-02-15T04:44:09.199Z,74.83
2018-02-15T04:45:09.200Z,73.79
2018-02-15T04:46:09.198Z,73.79
2018-02-15T04:47:09.201Z,74.26
2018-02-15T04:48:09.201Z,75.40
2018-02-15T04:49:09.210Z,75.02
2018-02-15T04:50:09.213Z,75.21
2018-02-15T04:51:09.216Z,73.98
2018-02-15T04:52:09.217Z,73.69
2018-02-15T04:53:09.222Z,74.07
2018-02-15T04:54:09.218Z,74.55
2018-02-15T04:55:09.227Z,74.64
2018-02-15T04:56:09.224Z,75.30
2018-02-15T04:57:09.233Z,75.68
2018-02-15T04:58:09.231Z,75.40
2018-02-15T04:59:09.232Z,75.30
2018-02-15T05:00:09.235Z,75.68
2018-02-15T05:01:09.238Z,75.78
2018-02-15T05:02:09.245Z,75.21
2018-02-15T05:03:09.248Z,75.87
2018-02-15T05:04:09.250Z,78.13
2018-02-15T05:05:09.249Z,79.22
2018-02-15T05:06:09.251Z,76.77
2018-02-15T05:07:09.261Z,76.30
2018-02-15T05:08:09.264Z,75.64
2018-02-15T05:09:09.258Z,79.22
2018-02-15T05:10:09.267Z,81.11
2018-02-15T05:11:09.264Z,81.21
2018-02-15T05:12:09.266Z,80.92
2018-02-15T05:13:09.278Z,81.30
2018-02-15T05:14:09.275Z,81.96
2018-02-15T05:15:09.279Z,82.34
2018-02-15T05:16:09.274Z,82.24
2018-02-15T05:17:09.276Z,82.43
2018-02-15T05:18:09.287Z,81.87
2018-02-15T05:19:09.288Z,81.11
2018-02-15T05:20:09.286Z,80.83
2018-02-15T05:21:09.285Z,80.73
2018-02-15T05:22:09.289Z,81.30
2018-02-15T05:23:09.288Z,81.68
2018-02-15T05:24:09.290Z,81.21
2018-02-15T05:25:09.298Z,81.49
2018-02-15T05:26:09.301Z,81.96
2018-02-15T05:27:09.302Z,82.43
2018-02-15T05:28:09.304Z,82.34
2018-02-15T05:29:09.301Z,81.87
2018-02-15T05:30:09.306Z,82.62
2018-02-15T05:31:09.310Z,82.34
2018-02-15T05:32:09.308Z,82.81
2018-02-15T05:33:09.308Z,84.03
2018-02-15T05:34:09.337Z,84.27
2018-02-15T05:35:09.317Z,84.36
2018-02-15T05:36:09.322Z,84.17
2018-02-15T05:37:09.321Z,83.70
2018-02-15T05:38:09.334Z,83.14
2018-02-15T05:39:09.324Z,83.61
2018-02-15T05:40:09.325Z,84.27
2018-02-15T05:41:09.330Z,84.74
2018-02-15T05:42:09.327Z,84.74
2018-02-15T05:43:09.328Z,85.68
2018-02-15T05:44:09.339Z,87.00
2018-02-15T05:45:09.345Z,88.23
2018-02-15T05:46:09.342Z,87.00
2018-02-15T05:47:09.345Z,86.34
2018-02-15T05:48:09.348Z,86.06
2018-02-15T05:49:09.344Z,86.82
2018-02-15T05:50:09.347Z,88.23
2018-02-15T05:51:09.353Z,89.74
2018-02-15T05:52:09.356Z,88.98
2018-02-15T05:53:09.357Z,88.32
2018-02-15T05:54:09.358Z,88.70
2018-02-15T05:55:09.358Z,89.08
2018-02-15T05:56:09.360Z,87.29
2018-02-15T05:57:09.369Z,86.53
2018-02-15T05:58:09.372Z,86.06
2018-02-15T05:59:09.371Z,85.77
2018-02-15T06:00:09.375Z,85.68
2018-02-15T06:01:09.379Z,85.59
2018-02-15T06:02:09.378Z,85.21
2018-02-15T06:03:09.385Z,85.02
2018-02-15T06:04:09.384Z,85.59
2018-02-15T06:05:09.391Z,86.25
2018-02-15T06:06:09.394Z,86.53
2018-02-15T06:07:09.389Z,87.19
2018-02-15T06:08:09.392Z,87.00
2018-02-15T06:09:09.396Z,87.66
2018-02-15T06:10:09.405Z,87.29
2018-02-15T06:11:09.400Z,88.32
2018-02-15T06:12:09.409Z,86.06
2018-02-15T06:13:09.407Z,85.30
2018-02-15T06:14:09.417Z,86.15
2018-02-15T06:15:09.412Z,86.82
2018-02-15T06:16:09.415Z,86.15
2018-02-15T06:17:09.418Z,85.96
2018-02-15T06:18:09.428Z,86.53
2018-02-15T06:19:09.424Z,86.91
2018-02-15T06:20:09.428Z,86.76
2018-02-15T06:21:09.436Z,86.86
2018-02-15T06:22:09.435Z,87.71
2018-02-15T06:23:09.435Z,86.86
2018-02-15T06:24:09.446Z,86.67
2018-02-15T06:25:09.448Z,87.05
2018-02-15T06:26:09.451Z,87.33
2018-02-15T06:27:09.447Z,88.46
2018-02-15T06:28:09.505Z,88.46
2018-02-15T06:29:09.454Z,88.37
2018-02-15T06:30:09.457Z,87.62
2018-02-15T06:31:09.466Z,87.33
2018-02-15T06:32:09.473Z,87.43
2018-02-15T06:33:09.474Z,86.86
2018-02-15T06:34:09.477Z,87.71
2018-02-15T06:35:09.482Z,87.14
2018-02-15T06:36:09.477Z,87.14
2018-02-15T06:37:09.480Z,86.95
2018-02-15T06:38:09.489Z,88.37
2018-02-15T06:39:09.491Z,88.75
2018-02-15T06:40:09.493Z,88.32
2018-02-15T06:41:09.498Z,87.00
2018-02-15T06:42:09.495Z,86.86
2018-02-15T06:43:09.498Z,87.29
2018-02-15T06:44:09.503Z,88.37
2018-02-15T06:45:09.511Z,87.38
2018-02-15T06:46:09.510Z,87.19
2018-02-15T06:47:09.516Z,87.29
2018-02-15T06:48:09.518Z,88.09
2018-02-15T06:49:09.523Z,87.80
2018-02-15T06:50:09.522Z,87.62
2018-02-15T06:51:09.524Z,87.90
2018-02-15T06:52:09.529Z,88.84
2018-02-15T06:53:09.540Z,90.45
2018-02-15T06:54:09.537Z,91.53
2018-02-15T06:55:09.543Z,91.82
2018-02-15T06:56:09.547Z,91.44
2018-02-15T06:57:09.550Z,90.59
2018-02-15T06:58:09.553Z,90.59
2018-02-15T06:59:09.550Z,89.74
2018-02-15T07:00:09.553Z,89.55
2018-02-15T07:01:09.558Z,89.36
2018-02-15T07:02:09.563Z,89.17
2018-02-15T07:03:09.563Z,89.31
2018-02-15T07:04:09.567Z,88.84
2018-02-15T07:05:09.570Z,88.46
2018-02-15T07:06:09.576Z,88.18
2018-02-15T07:07:09.576Z,88.75
2018-02-15T07:08:09.585Z,89.40
2018-02-15T07:09:09.583Z,88.75
2018-02-15T07:10:09.593Z,88.84
2018-02-15T07:11:09.590Z,88.75
2018-02-15T07:12:09.598Z,89.97
2018-02-15T07:13:09.601Z,90.35
2018-02-15T07:14:09.600Z,89.97
2018-02-15T07:15:09.606Z,89.59
2018-02-15T07:16:09.612Z,88.84
2018-02-15T07:17:09.614Z,88.46
2018-02-15T07:18:09.613Z,89.03
2018-02-15T07:19:09.613Z,88.65
2018-02-15T07:20:09.623Z,88.75
2018-02-15T07:21:09.621Z,89.78
2018-02-15T07:22:09.630Z,89.69
2018-02-15T07:23:09.627Z,88.84
2018-02-15T07:24:09.631Z,88.37
2018-02-15T07:25:09.638Z,88.46
2018-02-15T07:26:09.637Z,88.46
2018-02-15T07:27:09.639Z,88.46
2018-02-15T07:28:09.650Z,87.99
2018-02-15T07:29:09.647Z,87.99
2018-02-15T07:30:09.661Z,87.90
2018-02-15T07:31:09.660Z,87.99
2018-02-15T07:32:09.655Z,88.37
2018-02-15T07:33:09.661Z,88.46
2018-02-15T07:34:09.666Z,88.56
2018-02-15T07:35:09.670Z,88.65
2018-02-15T07:36:09.700Z,88.75
2018-02-15T07:37:09.674Z,88.56
2018-02-15T07:38:09.680Z,88.37
2018-02-15T07:39:09.685Z,88.37
2018-02-15T07:40:09.683Z,88.65
2018-02-15T07:41:09.691Z,89.31
2018-02-15T07:42:09.695Z,89.22
2018-02-15T07:43:09.694Z,89.22
2018-02-15T07:44:09.721Z,88.56
2018-02-15T07:45:09.705Z,87.80
2018-02-15T07:46:09.711Z,88.37
2018-02-15T07:47:09.716Z,88.37
2018-02-15T07:48:09.710Z,88.75
2018-02-15T07:49:09.716Z,89.22
2018-02-15T07:50:09.720Z,89.12
2018-02-15T07:51:09.729Z,89.31
2018-02-15T07:52:09.733Z,89.40
2018-02-15T07:53:09.736Z,89.59
2018-02-15T07:54:09.734Z,89.40
2018-02-15T07:55:09.743Z,89.88
2018-02-15T07:56:09.739Z,89.69
2018-02-15T07:57:09.743Z,91.58
2018-02-15T07:58:09.748Z,91.77
2018-02-15T07:59:09.752Z,91.39
2018-02-15T08:00:09.755Z,91.30
2018-02-15T08:01:09.764Z,91.11
2018-02-15T08:02:09.768Z,91.39
2018-02-15T08:03:09.765Z,90.35
2018-02-15T08:04:09.776Z,90.64
2018-02-15T08:05:09.772Z,92.05
2018-02-15T08:06:09.777Z,91.96
2018-02-15T08:07:09.785Z,92.33
2018-02-15T08:08:09.786Z,92.14
2018-02-15T08:09:09.792Z,91.20
2018-02-15T08:10:09.792Z,90.92
2018-02-15T08:11:09.796Z,90.73
2018-02-15T08:12:09.801Z,90.82
2018-02-15T08:13:09.811Z,90.45
2018-02-15T08:14:09.808Z,90.26
2018-02-15T08:15:09.811Z,90.54
2018-02-15T08:16:09.820Z,90.92
2018-02-15T08:17:09.825Z,91.58
2018-02-15T08:18:09.825Z,91.39
2018-02-15T08:19:09.829Z,89.97
2018-02-15T08:20:09.827Z,90.45
2018-02-15T08:21:09.839Z,90.07
2018-02-15T08:22:09.840Z,90.73
2018-02-15T08:23:09.844Z,90.73
2018-02-15T08:24:09.843Z,90.92
2018-02-15T08:25:09.846Z,90.73
2018-02-15T08:26:09.851Z,91.58
2018-02-15T08:27:09.861Z,92.43
2018-02-15T08:28:09.864Z,92.14
2018-02-15T08:29:09.870Z,91.58
2018-02-15T08:30:09.868Z,90.64
2018-02-15T08:31:09.874Z,90.35
2018-02-15T08:32:09.872Z,89.78
2018-02-15T08:33:09.880Z,91.20
2018-02-15T08:34:09.886Z,92.24
2018-02-15T08:35:09.884Z,92.71
2018-02-15T08:36:09.888Z,92.57
2018-02-15T08:37:09.893Z,92.00
2018-02-15T08:38:09.896Z,93.32
2018-02-15T08:39:09.905Z,94.08
2018-02-15T08:40:09.904Z,94.37
2018-02-15T08:41:09.912Z,93.42
2018-02-15T08:42:09.912Z,93.23
2018-02-15T08:43:09.914Z,92.66
2018-02-15T08:44:09.924Z,92.85
2018-02-15T08:45:09.932Z,92.66
2018-02-15T08:46:09.934Z,92.00
2018-02-15T08:47:09.931Z,91.25
2018-02-15T08:48:09.934Z,91.91
2018-02-15T08:49:09.945Z,92.29
2018-02-15T08:50:09.944Z,92.19
2018-02-15T08:51:09.945Z,92.05
2018-02-15T08:52:09.950Z,91.77
2018-02-15T08:53:09.961Z,91.53
2018-02-15T08:54:09.958Z,90.92
2018-02-15T08:55:09.967Z,91.39
2018-02-15T08:56:09.970Z,92.05
2018-02-15T08:57:09.975Z,92.05
2018-02-15T08:58:09.973Z,91.11
2018-02-15T08:59:09.983Z,91.53
2018-02-15T09:00:09.985Z,92.14
2018-02-15T09:01:09.986Z,92.47
2018-02-15T09:02:09.996Z,93.51
2018-02-15T09:03:09.994Z,92.57
2018-02-15T09:04:10.008Z,91.72
2018-02-15T09:05:10.003Z,91.34
2018-02-15T09:06:10.012Z,92.29
2018-02-15T09:07:10.013Z,92.38
2018-02-15T09:08:10.013Z,92.29
2018-02-15T09:09:10.019Z,92.38
2018-02-15T09:10:10.021Z,92.10
2018-02-15T09:11:10.025Z,92.94
2018-02-15T09:12:10.028Z,93.51
2018-02-15T09:13:10.037Z,92.76
2018-02-15T09:14:10.037Z,92.29
2018-02-15T09:15:10.044Z,93.23
2018-02-15T09:16:10.050Z,92.85
2018-02-15T09:17:10.047Z,93.51
2018-02-15T09:18:10.053Z,93.32
2018-02-15T09:19:10.056Z,92.19
2018-02-15T09:20:10.064Z,92.29
2018-02-15T09:21:10.062Z,92.76
2018-02-15T09:22:10.067Z,92.00
2018-02-15T09:23:10.078Z,91.91
2018-02-15T09:24:10.081Z,91.63
2018-02-15T09:25:10.079Z,92.19
2018-02-15T09:26:10.088Z,92.57
2018-02-15T09:27:10.092Z,93.32
2018-02-15T09:28:10.092Z,94.08
2018-02-15T09:29:10.102Z,92.94
2018-02-15T09:30:10.098Z,93.13
2018-02-15T09:31:10.109Z,93.42
2018-02-15T09:32:10.107Z,93.80
2018-02-15T09:33:10.117Z,95.03
2018-02-15T09:34:10.125Z,94.98
2018-02-15T09:35:10.121Z,95.36
2018-02-15T09:36:10.123Z,95.64
2018-02-15T09:37:10.134Z,95.54
2018-02-15T09:38:10.172Z,95.54
2018-02-15T09:39:10.134Z,95.45
2018-02-15T09:40:10.141Z,95.64
2018-02-15T09:41:10.150Z,95.54
2018-02-15T09:42:10.155Z,96.49
2018-02-15T09:43:10.157Z,96.40
2018-02-15T09:44:10.158Z,95.36
2018-02-15T09:45:10.169Z,94.13
2018-02-15T09:46:10.165Z,94.22
2018-02-15T09:47:10.176Z,94.79
2018-02-15T09:48:10.175Z,95.26
2018-02-15T09:49:10.178Z,93.84
2018-02-15T09:50:10.192Z,92.71
2018-02-15T09:51:10.189Z,92.90
2018-02-15T09:52:10.193Z,93.56
2018-02-15T09:53:10.198Z,96.02
2018-02-15T09:54:10.206Z,96.21
2018-02-15T09:55:10.206Z,94.98
2018-02-15T09:56:10.211Z,94.70
2018-02-15T09:57:10.214Z,95.26
2018-02-15T09:58:10.221Z,96.59
2018-02-15T09:59:10.224Z,97.11
2018-02-15T10:00:10.229Z,97.67
2018-02-15T10:01:10.234Z,97.01
2018-02-15T10:02:10.244Z,97.39
2018-02-15T10:03:10.251Z,97.39
2018-02-15T10:04:10.254Z,97.77
2018-02-15T10:05:10.261Z,98.14
2018-02-15T10:06:10.265Z,98.43
2018-02-15T10:07:10.269Z,99.00
2018-02-15T10:08:10.273Z,98.33
2018-02-15T10:09:10.273Z,97.20
2018-02-15T10:10:10.282Z,96.92
2018-02-15T10:11:10.282Z,96.64
2018-02-15T10:12:10.289Z,97.67
2018-02-15T10:13:10.293Z,97.77
2018-02-15T10:14:10.297Z,98.48
2018-02-15T10:15:10.307Z,98.48
2018-02-15T10:16:10.313Z,98.39
2018-02-15T10:17:10.319Z,97.82
2018-02-15T10:18:10.324Z,97.34
2018-02-15T10:19:10.323Z,97.72
2018-02-15T10:20:10.335Z,96.40
2018-02-15T10:21:10.340Z,95.83
2018-02-15T10:22:10.349Z,95.74
2018-02-15T10:23:10.348Z,96.40
2018-02-15T10:24:10.350Z,96.02
2018-02-15T10:25:10.360Z,96.21
2018-02-15T10:26:10.363Z,96.31
2018-02-15T10:27:10.402Z,95.64
2018-02-15T10:28:10.381Z,95.17
2018-02-15T10:29:10.378Z,94.89
2018-02-15T10:30:10.391Z,95.36
2018-02-15T10:31:10.390Z,95.64
2018-02-15T10:32:10.401Z,95.55
2018-02-15T10:33:10.407Z,96.02
2018-02-15T10:34:10.438Z,95.74
2018-02-15T10:35:10.418Z,97.25
2018-02-15T10:36:10.423Z,97.06
2018-02-15T10:37:10.424Z,97.25
2018-02-15T10:38:10.434Z,96.69
2018-02-15T10:39:10.442Z,96.21
2018-02-15T10:40:10.449Z,95.36
2018-02-15T10:41:10.455Z,95.74
2018-02-15T10:42:10.460Z,95.26
2018-02-15T10:43:10.459Z,95.36
2018-02-15T10:44:10.471Z,95.45
2018-02-15T10:45:10.472Z,95.36
2018-02-15T10:46:10.480Z,95.55
2018-02-15T10:47:10.486Z,95.07
2018-02-15T10:48:10.490Z,95.83
2018-02-15T10:49:10.503Z,95.83
2018-02-15T10:50:10.503Z,95.74
2018-02-15T10:51:10.517Z,95.17
2018-02-15T10:52:10.515Z,95.36
2018-02-15T10:53:10.522Z,95.07
2018-02-15T10:54:10.529Z,94.79
2018-02-15T10:55:10.539Z,95.07
2018-02-15T10:56:10.548Z,95.17
2018-02-15T10:57:10.550Z,94.89
2018-02-15T10:58:10.558Z,94.89
2018-02-15T10:59:10.562Z,94.89
2018-02-15T11:00:10.569Z,94.70
2018-02-15T11:01:10.577Z,94.89
2018-02-15T11:02:10.586Z,95.36
2018-02-15T11:03:10.582Z,94.98
2018-02-15T11:04:10.590Z,95.17
2018-02-15T11:05:10.597Z,94.70
2018-02-15T11:06:10.608Z,94.32
2018-02-15T11:07:10.612Z,94.23
2018-02-15T11:08:10.619Z,94.32
2018-02-15T11:09:10.620Z,94.04
2018-02-15T11:10:10.626Z,94.32
2018-02-15T11:11:10.637Z,94.04
2018-02-15T11:12:10.639Z,94.18
2018-02-15T11:13:10.646Z,94.32
2018-02-15T11:14:10.656Z,94.37
2018-02-15T11:15:10.663Z,94.27
2018-02-15T11:16:10.668Z,94.27
2018-02-15T11:17:10.675Z,93.89
2018-02-15T11:18:10.677Z,93.51
2018-02-15T11:19:10.689Z,93.80
2018-02-15T11:20:10.690Z,93.61
2018-02-15T11:21:10.703Z,93.61
2018-02-15T11:22:10.703Z,93.80
2018-02-15T11:23:10.709Z,94.13
2018-02-15T11:24:10.723Z,94.04
2018-02-15T11:25:10.729Z,94.08
2018-02-15T11:26:10.729Z,94.42
2018-02-15T11:27:10.786Z,95.59
2018-02-15T11:28:10.747Z,95.40
2018-02-15T11:29:10.748Z,95.12
2018-02-15T11:30:10.761Z,95.50
2018-02-15T11:31:10.761Z,95.88
2018-02-15T11:32:10.774Z,94.56
2018-02-15T11:33:10.784Z,94.27
2018-02-15T11:34:10.786Z,94.18
2018-02-15T11:35:10.787Z,94.27
2018-02-15T11:36:10.800Z,94.08
2018-02-15T11:37:10.806Z,94.08
2018-02-15T11:38:10.808Z,93.80
2018-02-15T11:39:10.816Z,93.61
2018-02-15T11:40:10.825Z,94.42
2018-02-15T11:41:10.829Z,94.37
2018-02-15T11:42:10.837Z,94.04
2018-02-15T11:43:10.841Z,94.27
2018-02-15T11:44:10.853Z,94.08
2018-02-15T11:45:10.861Z,93.61
2018-02-15T11:46:10.863Z,94.37
2018-02-15T11:47:10.868Z,93.42
2018-02-15T11:48:10.880Z,93.51
2018-02-15T11:49:10.887Z,93.61
2018-02-15T11:50:10.893Z,93.42
2018-02-15T11:51:10.895Z,93.61
2018-02-15T11:52:10.905Z,94.37
2018-02-15T11:53:10.913Z,94.08
2018-02-15T11:54:10.925Z,94.08
2018-02-15T11:55:10.928Z,94.18
2018-02-15T11:56:10.936Z,93.89
2018-02-15T11:57:10.934Z,93.51
2018-02-15T11:58:10.942Z,93.51
2018-02-15T11:59:10.954Z,94.27
2018-02-15T12:00:10.955Z,94.08
2018-02-15T12:01:10.975Z,94.08
2018-02-15T12:02:10.975Z,94.27
2018-02-15T12:03:10.976Z,94.84
2018-02-15T12:04:10.994Z,95.21
2018-02-15T12:05:10.990Z,94.37
2018-02-15T12:06:11.000Z,94.37
2018-02-15T12:07:11.008Z,93.89
2018-02-15T12:08:11.010Z,93.99
2018-02-15T12:09:11.015Z,94.08
2018-02-15T12:10:11.026Z,93.99
2018-02-15T12:11:11.028Z,94.08
2018-02-15T12:12:11.043Z,93.80
2018-02-15T12:13:11.054Z,94.37
2018-02-15T12:14:11.057Z,94.27
2018-02-15T12:15:11.057Z,94.56
2018-02-15T12:16:11.069Z,93.99
2018-02-15T12:17:11.078Z,94.27
2018-02-15T12:18:11.083Z,93.32
2018-02-15T12:19:11.085Z,93.04
2018-02-15T12:20:11.092Z,93.42
2018-02-15T12:21:11.113Z,93.04
2018-02-15T12:22:11.105Z,92.66
2018-02-15T12:23:11.114Z,92.85
2018-02-15T12:24:11.124Z,92.76
2018-02-15T12:25:11.126Z,93.42
2018-02-15T12:26:11.132Z,93.04
2018-02-15T12:27:11.149Z,92.85
2018-02-15T12:28:11.154Z,92.76
2018-02-15T12:29:11.158Z,93.04
2018-02-15T12:30:11.161Z,92.71
2018-02-15T12:31:11.169Z,92.80
2018-02-15T12:32:11.176Z,92.90
2018-02-15T12:33:11.184Z,92.61
2018-02-15T12:34:11.198Z,92.29
2018-02-15T12:35:11.198Z,93.04
2018-02-15T12:36:11.207Z,92.57
2018-02-15T12:37:11.213Z,92.47
2018-02-15T12:38:11.226Z,92.47
2018-02-15T12:39:11.225Z,92.57
2018-02-15T12:40:11.232Z,93.04
2018-02-15T12:41:11.240Z,92.47
2018-02-15T12:42:11.248Z,93.32
2018-02-15T12:43:11.259Z,93.99
2018-02-15T12:44:11.265Z,93.99
2018-02-15T12:45:11.275Z,94.46
2018-02-15T12:46:11.287Z,94.37
2018-02-15T12:47:11.289Z,94.27
2018-02-15T12:48:11.339Z,94.27
2018-02-15T12:49:11.298Z,93.99
2018-02-15T12:50:11.310Z,93.99
2018-02-15T12:51:11.319Z,93.70
2018-02-15T12:52:11.348Z,93.23